Terminal Aerodrome Forecast
Issued by NWS Sioux Falls, SD

Home | Current Version | Previous Version | Text Only | Print | Product List | Glossary Off
Versions: 1 2 3 4 5 6 7 8 9 10 11 12 13 14 15 16 17

000
FTUS43 KFSD 162100 AAB
TAFFSD
TAF AMD
KFSD 162138Z 1622/1718 01021G28KT 1/2SM SN FG BKN008
      TEMPO 1622/1623 1 1/2SM -SN BR SCT008 OVC012
     FM162300 01021G28KT P6SM OVC014
     FM170300 35014G20KT P6SM OVC025
     FM170900 34009KT P6SM BKN012
     FM171400 35013KT P6SM SCT017=

USA.gov is the U.S. government's official web portal to all federal, state and local government web resources and services.